createdAt,value
2024-01-14T00:01:18.001Z,0.77
2024-01-14T00:03:46.456Z,0.70
2024-01-14T00:06:16.246Z,0.61
2024-01-14T00:08:44.543Z,0.51
2024-01-14T00:11:15.087Z,0.67
2024-01-14T00:13:43.317Z,0.71
2024-01-14T00:16:13.887Z,0.85
2024-01-14T00:18:42.247Z,0.79
2024-01-14T00:21:11.808Z,0.67
2024-01-14T00:23:40.024Z,0.77
2024-01-14T00:26:10.577Z,0.61
2024-01-14T00:28:38.835Z,0.75
2024-01-14T00:31:09.552Z,0.66
2024-01-14T00:33:38.037Z,0.60
2024-01-14T00:36:08.265Z,0.56
2024-01-14T00:38:36.773Z,0.56
2024-01-14T00:41:06.320Z,0.52
2024-01-14T00:43:34.648Z,0.63
2024-01-14T00:46:05.409Z,0.55
2024-01-14T00:48:33.703Z,0.71
2024-01-14T00:51:03.609Z,0.54
2024-01-14T00:53:31.901Z,0.57
2024-01-14T00:56:02.454Z,0.55
2024-01-14T00:58:30.723Z,0.49
2024-01-14T01:01:01.369Z,0.65
2024-01-14T01:03:29.905Z,0.59
2024-01-14T01:05:59.668Z,0.41
2024-01-14T01:08:28.112Z,0.43
2024-01-14T01:10:58.706Z,0.56
2024-01-14T01:13:27.019Z,0.48
2024-01-14T01:15:57.624Z,0.78
2024-01-14T01:18:26.211Z,0.62
2024-01-14T01:20:55.887Z,0.54
2024-01-14T01:23:24.305Z,0.49
2024-01-14T01:25:53.915Z,0.56
2024-01-14T01:28:22.230Z,0.64
2024-01-14T01:30:52.107Z,0.42
2024-01-14T01:33:20.614Z,0.36
2024-01-14T01:35:50.346Z,0.41
2024-01-14T01:38:18.753Z,0.42
2024-01-14T01:40:48.409Z,0.41
2024-01-14T01:43:16.706Z,0.50
2024-01-14T01:45:47.720Z,0.73
2024-01-14T01:48:20.061Z,0.45
2024-01-14T01:50:54.078Z,0.53
2024-01-14T01:53:23.344Z,0.47
2024-01-14T01:55:54.302Z,0.64
2024-01-14T01:58:22.694Z,0.50
2024-01-14T02:00:53.077Z,0.40
2024-01-14T02:03:22.912Z,0.65
2024-01-14T02:05:58.409Z,0.37
2024-01-14T02:08:28.123Z,0.44
2024-01-14T02:10:56.503Z,0.50
2024-01-14T02:13:26.296Z,0.51
2024-01-14T02:15:54.747Z,0.42
2024-01-14T02:18:24.502Z,0.35
2024-01-14T02:20:52.968Z,0.47
2024-01-14T02:23:24.131Z,0.47
2024-01-14T02:25:52.955Z,0.52
2024-01-14T02:28:22.716Z,0.48
2024-01-14T02:30:51.315Z,0.44
2024-01-14T02:33:23.636Z,0.49
2024-01-14T02:35:52.080Z,0.37
2024-01-14T02:38:21.705Z,0.45
2024-01-14T02:40:50.092Z,0.44
2024-01-14T02:43:19.678Z,0.56
2024-01-14T02:45:48.000Z,0.42
2024-01-14T02:48:17.782Z,0.45
2024-01-14T02:50:46.185Z,0.43
2024-01-14T02:53:16.767Z,0.52
2024-01-14T02:55:45.082Z,0.59
2024-01-14T02:58:15.713Z,0.68
2024-01-14T03:00:44.061Z,0.51
2024-01-14T03:03:15.146Z,0.66
2024-01-14T03:05:43.821Z,0.54
2024-01-14T03:08:13.458Z,0.50
2024-01-14T03:10:41.720Z,0.59
2024-01-14T03:13:16.366Z,0.72
2024-01-14T03:15:47.803Z,0.58
2024-01-14T03:18:16.323Z,0.61
2024-01-14T03:20:45.942Z,0.54
2024-01-14T03:23:14.335Z,0.49
2024-01-14T03:25:43.865Z,0.49
2024-01-14T03:28:12.092Z,0.54
2024-01-14T03:30:42.704Z,0.56
2024-01-14T03:33:11.052Z,0.36
2024-01-14T03:35:41.148Z,0.46
2024-01-14T03:38:09.428Z,0.54
2024-01-14T03:40:39.003Z,0.59
2024-01-14T03:43:07.334Z,0.51
2024-01-14T03:45:36.936Z,0.34
2024-01-14T03:48:05.866Z,0.30
2024-01-14T03:50:35.546Z,0.47
2024-01-14T03:53:04.061Z,0.39
2024-01-14T03:55:33.578Z,0.36
2024-01-14T03:58:01.805Z,0.40
2024-01-14T04:00:32.606Z,0.42
2024-01-14T04:03:01.003Z,0.49
2024-01-14T04:05:30.738Z,0.57
2024-01-14T04:07:59.085Z,0.43
2024-01-14T04:10:28.699Z,0.39
2024-01-14T04:12:56.995Z,0.43
2024-01-14T04:15:27.639Z,0.40
2024-01-14T04:17:56.048Z,0.38
2024-01-14T04:20:25.692Z,0.39
2024-01-14T04:22:54.016Z,0.47
2024-01-14T04:25:23.634Z,0.53
2024-01-14T04:27:51.949Z,0.43
2024-01-14T04:30:21.717Z,0.47
2024-01-14T04:32:51.084Z,0.35
2024-01-14T04:35:20.958Z,0.37
2024-01-14T04:37:49.317Z,0.44
2024-01-14T04:40:18.924Z,0.40
2024-01-14T04:42:47.189Z,0.38
2024-01-14T04:45:17.852Z,0.35
2024-01-14T04:47:46.241Z,0.37
2024-01-14T04:50:16.146Z,0.29
2024-01-14T04:52:44.809Z,0.39
2024-01-14T04:55:15.618Z,0.58
2024-01-14T04:57:43.949Z,0.43
2024-01-14T05:00:14.271Z,0.44
2024-01-14T05:02:42.675Z,0.37
2024-01-14T05:05:12.372Z,0.46
2024-01-14T05:07:40.692Z,0.34
2024-01-14T05:10:10.830Z,0.33
2024-01-14T05:12:39.142Z,0.40
2024-01-14T05:15:09.994Z,0.39
2024-01-14T05:17:38.384Z,0.33
2024-01-14T05:20:08.039Z,0.42
2024-01-14T05:22:36.360Z,0.49
2024-01-14T05:25:06.196Z,0.44
2024-01-14T05:27:34.551Z,0.35
2024-01-14T05:30:05.261Z,0.50
2024-01-14T05:32:33.725Z,0.35
2024-01-14T05:35:03.463Z,0.44
2024-01-14T05:37:31.927Z,0.46
2024-01-14T05:40:01.559Z,0.36
2024-01-14T05:42:30.353Z,0.36
2024-01-14T05:45:00.179Z,0.32
2024-01-14T05:47:28.630Z,0.23
2024-01-14T05:49:59.405Z,0.46
2024-01-14T05:52:27.823Z,0.40
2024-01-14T05:54:57.440Z,0.37
2024-01-14T05:57:25.828Z,0.45
2024-01-14T05:59:55.499Z,0.33
2024-01-14T06:02:23.745Z,0.42
2024-01-14T06:04:54.370Z,0.40
2024-01-14T06:07:23.504Z,0.42
2024-01-14T06:09:53.130Z,0.31
2024-01-14T06:12:21.403Z,0.59
2024-01-14T06:14:51.045Z,0.41
2024-01-14T06:17:19.252Z,0.36
2024-01-14T06:19:49.836Z,0.38
2024-01-14T06:22:18.104Z,0.35
2024-01-14T06:24:48.633Z,0.52
2024-01-14T06:27:16.941Z,0.45
2024-01-14T06:29:47.497Z,0.27
2024-01-14T06:32:17.118Z,0.35
2024-01-14T06:34:46.760Z,0.44
2024-01-14T06:37:15.065Z,0.39
2024-01-14T06:39:45.599Z,0.27
2024-01-14T06:42:14.004Z,0.54
2024-01-14T06:44:43.564Z,0.40
2024-01-14T06:47:11.955Z,0.38
2024-01-14T06:49:41.660Z,0.49
2024-01-14T06:52:10.024Z,0.39
2024-01-14T06:54:40.732Z,0.46
2024-01-14T06:57:09.151Z,0.47
2024-01-14T06:59:38.901Z,0.54
2024-01-14T07:02:07.215Z,0.42
2024-01-14T07:04:37.897Z,0.42
2024-01-14T07:07:06.413Z,0.38
2024-01-14T07:09:37.071Z,0.58
2024-01-14T07:12:05.873Z,0.53
2024-01-14T07:14:35.490Z,0.46
2024-01-14T07:17:04.105Z,0.39
2024-01-14T07:19:34.011Z,0.65
2024-01-14T07:22:03.172Z,0.50
2024-01-14T07:24:33.832Z,0.37
2024-01-14T07:27:02.158Z,0.53
2024-01-14T07:29:32.685Z,0.74
2024-01-14T07:32:04.209Z,0.58
2024-01-14T07:34:35.460Z,0.51
2024-01-14T07:37:04.040Z,0.55
2024-01-14T07:39:33.680Z,0.65
2024-01-14T07:42:02.079Z,0.72
2024-01-14T07:44:31.844Z,0.63
2024-01-14T07:47:00.245Z,0.69
2024-01-14T07:49:29.998Z,0.67
2024-01-14T07:51:59.107Z,0.57
2024-01-14T07:54:28.766Z,0.52
2024-01-14T07:56:57.093Z,0.51
2024-01-14T07:59:26.723Z,0.47
2024-01-14T08:01:55.003Z,0.56
2024-01-14T08:04:24.648Z,0.58
2024-01-14T08:06:52.913Z,0.48
2024-01-14T08:09:23.524Z,0.54
2024-01-14T08:11:51.852Z,0.66
2024-01-14T08:14:21.567Z,0.63
2024-01-14T08:16:49.776Z,0.54
2024-01-14T08:19:21.068Z,0.51
2024-01-14T08:21:49.404Z,0.49
2024-01-14T08:24:18.996Z,0.56
2024-01-14T08:26:48.105Z,0.53
2024-01-14T08:29:24.861Z,0.61
2024-01-14T08:31:55.587Z,0.61
2024-01-14T08:34:23.929Z,0.65
2024-01-14T08:36:53.541Z,0.45
2024-01-14T08:39:21.769Z,0.56
2024-01-14T08:41:51.618Z,0.53
2024-01-14T08:44:23.509Z,0.47
2024-01-14T08:46:55.804Z,0.52
2024-01-14T08:49:24.360Z,0.65
2024-01-14T08:51:53.969Z,0.62
2024-01-14T08:54:22.528Z,0.69
2024-01-14T08:56:52.306Z,0.64
2024-01-14T08:59:20.656Z,0.69
2024-01-14T09:01:51.385Z,0.70
2024-01-14T09:04:19.710Z,0.81
2024-01-14T09:06:49.763Z,0.71
2024-01-14T09:09:18.164Z,0.72
2024-01-14T09:11:47.706Z,0.74
2024-01-14T09:14:15.925Z,0.79
2024-01-14T09:16:46.438Z,0.83
2024-01-14T09:19:15.277Z,0.77
2024-01-14T09:21:44.848Z,0.92
2024-01-14T09:24:13.104Z,0.86
2024-01-14T09:26:43.674Z,0.70
2024-01-14T09:29:13.731Z,0.61
2024-01-14T09:31:43.296Z,0.75
2024-01-14T09:34:11.701Z,0.72
2024-01-14T09:36:42.576Z,0.80
2024-01-14T09:39:10.952Z,0.64
2024-01-14T09:42:12.207Z,0.82
2024-01-14T09:44:42.664Z,1.01
2024-01-14T09:47:13.405Z,0.95
2024-01-14T09:49:43.606Z,1.08
2024-01-14T09:52:12.241Z,1.04
2024-01-14T09:54:41.963Z,0.99
2024-01-14T09:57:16.245Z,0.98
2024-01-14T09:59:49.399Z,1.08
2024-01-14T10:02:19.497Z,0.89
2024-01-14T10:04:49.542Z,0.92
2024-01-14T10:07:18.272Z,0.79
2024-01-14T10:09:47.983Z,0.89
2024-01-14T10:12:16.418Z,0.73
2024-01-14T10:14:57.647Z,0.85
2024-01-14T10:17:30.486Z,0.68
2024-01-14T10:19:58.756Z,0.86
2024-01-14T10:22:28.872Z,0.96
2024-01-14T10:24:58.460Z,0.84
2024-01-14T10:27:35.719Z,0.90
2024-01-14T10:30:13.633Z,1.12
2024-01-14T10:33:17.322Z,0.89
2024-01-14T10:35:34.577Z,0.78
2024-01-14T10:38:03.214Z,0.83
2024-01-14T10:40:32.858Z,0.66
2024-01-14T10:43:01.292Z,0.74
2024-01-14T10:45:31.034Z,0.62
2024-01-14T10:48:05.907Z,0.68
2024-01-14T10:50:44.727Z,0.79
2024-01-14T10:53:31.507Z,0.75
2024-01-14T10:56:04.570Z,0.74
2024-01-14T10:58:36.621Z,0.74
2024-01-14T11:01:12.007Z,0.67
2024-01-14T11:03:42.278Z,0.77
2024-01-14T11:06:11.826Z,0.69
2024-01-14T11:08:41.682Z,0.72
2024-01-14T11:11:11.136Z,0.59
2024-01-14T11:13:58.835Z,0.65
2024-01-14T11:16:47.495Z,0.65
2024-01-14T11:19:29.664Z,0.87
2024-01-14T11:22:32.334Z,0.70
2024-01-14T11:25:16.023Z,0.82
2024-01-14T11:27:46.189Z,0.77
2024-01-14T11:30:19.675Z,0.71
2024-01-14T11:32:49.383Z,0.80
2024-01-14T11:35:33.484Z,0.70
2024-01-14T11:38:03.193Z,0.73
2024-01-14T11:40:33.822Z,0.66
2024-01-14T11:43:07.366Z,0.78
2024-01-14T11:45:38.117Z,0.78
2024-01-14T11:48:12.262Z,1.15
2024-01-14T11:50:40.930Z,1.59
2024-01-14T11:53:10.804Z,1.61
2024-01-14T11:55:39.684Z,1.60
2024-01-14T11:58:13.161Z,1.23
2024-01-14T12:00:42.621Z,1.51
2024-01-14T12:03:16.298Z,1.38
2024-01-14T12:05:48.079Z,1.21
2024-01-14T12:08:18.538Z,1.14
2024-01-14T12:10:48.685Z,1.12
2024-01-14T12:13:17.711Z,1.27
2024-01-14T12:15:55.408Z,1.11
2024-01-14T12:18:46.100Z,1.13
2024-01-14T12:21:26.589Z,1.17
2024-01-14T12:24:00.211Z,0.97
2024-01-14T12:26:28.597Z,0.88
2024-01-14T12:28:58.576Z,1.34
2024-01-14T12:31:29.383Z,0.98
2024-01-14T12:34:04.748Z,1.35
2024-01-14T12:36:42.299Z,1.17
2024-01-14T12:39:19.205Z,1.21
2024-01-14T12:41:53.283Z,1.00
2024-01-14T12:44:24.865Z,1.00
2024-01-14T12:47:09.274Z,1.09
2024-01-14T12:49:39.656Z,1.00
2024-01-14T12:52:09.316Z,1.08
2024-01-14T12:54:39.317Z,1.08
2024-01-14T12:57:17.122Z,0.70
2024-01-14T12:59:52.988Z,0.88
2024-01-14T13:02:21.410Z,0.80
2024-01-14T13:04:51.292Z,0.84
2024-01-14T13:07:19.619Z,0.88
2024-01-14T13:09:49.246Z,0.73
2024-01-14T13:12:17.718Z,0.75
2024-01-14T13:14:47.283Z,0.77
2024-01-14T13:17:15.616Z,0.74
2024-01-14T13:19:45.250Z,0.66
2024-01-14T13:22:13.551Z,0.77
2024-01-14T13:24:44.086Z,0.76
2024-01-14T13:27:12.459Z,0.75
2024-01-14T13:29:41.138Z,0.95
2024-01-14T13:32:09.577Z,0.68
2024-01-14T13:34:39.566Z,0.61
2024-01-14T13:37:07.916Z,0.68
2024-01-14T13:39:38.503Z,0.83
2024-01-14T13:42:06.909Z,0.65
2024-01-14T13:44:36.724Z,0.71
2024-01-14T13:47:06.506Z,0.57
2024-01-14T13:49:35.332Z,0.69
2024-01-14T13:52:03.890Z,0.67
2024-01-14T13:54:33.451Z,0.68
2024-01-14T13:57:02.131Z,0.74
2024-01-14T13:59:31.842Z,0.59
2024-01-14T14:02:00.517Z,0.63
2024-01-14T14:04:30.182Z,0.59
2024-01-14T14:06:58.747Z,0.71
2024-01-14T14:09:28.513Z,0.54
2024-01-14T14:11:57.010Z,0.65
2024-01-14T14:14:26.768Z,0.74
2024-01-14T14:16:55.202Z,0.59
2024-01-14T14:19:25.010Z,0.53
2024-01-14T14:21:59.074Z,0.71
2024-01-14T14:24:31.314Z,0.53
2024-01-14T14:27:00.197Z,0.67
2024-01-14T14:29:30.229Z,0.80
2024-01-14T14:31:58.720Z,0.94
2024-01-14T14:34:28.785Z,0.58
2024-01-14T14:36:57.245Z,0.63
2024-01-14T14:39:28.011Z,0.54
2024-01-14T14:41:57.675Z,0.45
2024-01-14T14:44:27.338Z,0.43
2024-01-14T14:46:55.729Z,0.58
2024-01-14T14:49:26.443Z,0.70
2024-01-14T14:51:54.998Z,0.57
2024-01-14T14:54:24.693Z,0.77
2024-01-14T14:56:53.011Z,0.55
2024-01-14T14:59:23.496Z,0.60
2024-01-14T15:01:51.856Z,0.54
2024-01-14T15:04:22.850Z,0.68
2024-01-14T15:06:51.174Z,0.46
2024-01-14T15:09:21.745Z,0.37
2024-01-14T15:11:50.027Z,0.51
2024-01-14T15:14:20.540Z,0.47
2024-01-14T15:16:48.934Z,0.48
2024-01-14T15:19:19.587Z,0.49
2024-01-14T15:21:47.978Z,0.62
2024-01-14T15:24:17.867Z,0.53
2024-01-14T15:26:46.264Z,0.44
2024-01-14T15:29:16.175Z,0.53
2024-01-14T15:31:44.666Z,0.41
2024-01-14T15:34:14.554Z,0.43
2024-01-14T15:36:44.391Z,0.41
2024-01-14T15:39:14.052Z,0.48
2024-01-14T15:41:46.303Z,0.46
2024-01-14T15:44:15.960Z,0.34
2024-01-14T15:46:44.246Z,0.46
2024-01-14T15:49:14.964Z,0.42
2024-01-14T15:51:43.356Z,0.41
2024-01-14T15:54:13.058Z,0.35
2024-01-14T15:56:41.490Z,0.36
2024-01-14T15:59:11.145Z,0.35
2024-01-14T16:01:39.466Z,0.54
2024-01-14T16:04:09.193Z,0.42
2024-01-14T16:06:37.742Z,0.45
2024-01-14T16:09:07.511Z,0.58
2024-01-14T16:11:35.881Z,0.38
2024-01-14T16:14:06.502Z,0.45
2024-01-14T16:16:34.809Z,0.31
2024-01-14T16:19:06.527Z,0.44
2024-01-14T16:21:35.213Z,0.50
2024-01-14T16:24:04.685Z,0.44
2024-01-14T16:26:33.041Z,0.57
2024-01-14T16:29:04.600Z,0.54
2024-01-14T16:31:33.021Z,0.48
2024-01-14T16:34:02.877Z,0.41
2024-01-14T16:36:31.317Z,0.43
2024-01-14T16:39:00.973Z,0.37
2024-01-14T16:41:29.366Z,0.49
2024-01-14T16:43:59.000Z,0.86
2024-01-14T16:46:27.664Z,0.73
2024-01-14T16:48:57.578Z,0.96
2024-01-14T16:51:26.286Z,0.98
2024-01-14T16:53:55.979Z,1.07
2024-01-14T16:56:24.344Z,1.06
2024-01-14T16:58:53.935Z,1.24
2024-01-14T17:01:22.295Z,0.92
2024-01-14T17:03:52.591Z,0.94
2024-01-14T17:06:21.518Z,1.12
2024-01-14T17:08:51.418Z,0.76
2024-01-14T17:11:21.590Z,1.04
2024-01-14T17:13:51.558Z,0.81
2024-01-14T17:16:26.462Z,0.80
2024-01-14T17:18:59.467Z,0.73
2024-01-14T17:21:28.162Z,0.86
2024-01-14T17:23:57.890Z,0.82
2024-01-14T17:26:26.157Z,0.61
2024-01-14T17:28:56.746Z,0.72
2024-01-14T17:31:25.089Z,0.61
2024-01-14T17:33:55.043Z,0.59
2024-01-14T17:36:24.105Z,0.57
2024-01-14T17:38:53.683Z,0.74
2024-01-14T17:41:21.948Z,0.52
2024-01-14T17:43:52.489Z,0.66
2024-01-14T17:46:22.434Z,0.59
2024-01-14T17:48:52.929Z,0.67
2024-01-14T17:51:21.465Z,0.68
2024-01-14T17:53:52.476Z,0.68
2024-01-14T17:56:20.953Z,0.51
2024-01-14T17:58:50.491Z,0.56
2024-01-14T18:01:19.504Z,0.55
2024-01-14T18:03:49.286Z,0.55
2024-01-14T18:06:17.993Z,0.49
2024-01-14T18:08:48.554Z,0.67
2024-01-14T18:11:16.807Z,0.55
2024-01-14T18:13:47.394Z,0.52
2024-01-14T18:16:16.973Z,0.62
2024-01-14T18:18:46.595Z,0.61
2024-01-14T18:21:16.137Z,0.52
2024-01-14T18:23:45.689Z,0.60
2024-01-14T18:26:14.657Z,0.97
2024-01-14T18:28:44.257Z,0.71
2024-01-14T18:31:13.593Z,1.29
2024-01-14T18:33:43.520Z,1.94
2024-01-14T18:36:11.976Z,2.65
2024-01-14T18:38:42.572Z,3.17
2024-01-14T18:41:10.834Z,3.04
2024-01-14T18:43:41.402Z,2.99
2024-01-14T18:46:09.794Z,3.32
2024-01-14T18:48:39.467Z,3.64
2024-01-14T18:51:08.738Z,3.63
2024-01-14T18:53:38.294Z,3.92
2024-01-14T18:56:07.134Z,4.16
2024-01-14T18:58:36.636Z,3.83
2024-01-14T19:01:06.493Z,3.96
2024-01-14T19:03:36.240Z,3.95
2024-01-14T19:06:05.046Z,3.98
2024-01-14T19:08:34.691Z,4.05
2024-01-14T19:11:03.208Z,4.16
2024-01-14T19:13:32.865Z,3.94
2024-01-14T19:16:01.199Z,3.69
2024-01-14T19:18:30.820Z,3.86
2024-01-14T19:20:59.304Z,3.77
2024-01-14T19:23:28.876Z,3.52
2024-01-14T19:25:57.334Z,3.31
2024-01-14T19:28:28.218Z,3.04
2024-01-14T19:30:56.609Z,3.41
2024-01-14T19:33:26.355Z,3.35
2024-01-14T19:35:54.790Z,2.88
2024-01-14T19:38:24.388Z,2.87
2024-01-14T19:40:52.793Z,2.96
2024-01-14T19:43:22.425Z,3.39
2024-01-14T19:45:50.895Z,3.38
2024-01-14T19:48:20.931Z,2.99
2024-01-14T19:50:49.527Z,2.89
2024-01-14T19:53:20.348Z,2.94
2024-01-14T19:55:48.787Z,2.76
2024-01-14T19:58:18.409Z,2.91
2024-01-14T20:00:46.697Z,2.69
2024-01-14T20:03:16.362Z,2.69
2024-01-14T20:05:44.691Z,2.52
2024-01-14T20:08:14.303Z,2.61
2024-01-14T20:10:42.547Z,2.33
2024-01-14T20:13:13.084Z,2.42
2024-01-14T20:15:41.405Z,2.75
2024-01-14T20:18:11.129Z,2.49
2024-01-14T20:20:39.483Z,2.43
2024-01-14T20:23:09.992Z,2.36
2024-01-14T20:25:38.281Z,2.21
2024-01-14T20:28:08.792Z,2.16
2024-01-14T20:30:37.061Z,2.30
2024-01-14T20:33:06.783Z,2.17
2024-01-14T20:35:35.037Z,1.84
2024-01-14T20:38:05.542Z,2.03
2024-01-14T20:40:33.881Z,1.97
2024-01-14T20:43:04.604Z,1.74
2024-01-14T20:45:32.876Z,1.72
2024-01-14T20:48:03.878Z,1.94
2024-01-14T20:50:32.240Z,1.73
2024-01-14T20:53:02.116Z,2.00
2024-01-14T20:55:30.368Z,2.01
2024-01-14T20:58:00.939Z,1.72
2024-01-14T21:00:29.306Z,1.76
2024-01-14T21:02:59.910Z,1.56
2024-01-14T21:05:28.370Z,1.68
2024-01-14T21:07:57.162Z,1.50
2024-01-14T21:10:25.445Z,1.41
2024-01-14T21:12:56.133Z,1.36
2024-01-14T21:15:24.619Z,1.65
2024-01-14T21:17:54.293Z,1.44
2024-01-14T21:20:22.697Z,1.33
2024-01-14T21:22:52.343Z,1.17
2024-01-14T21:25:20.654Z,1.30
2024-01-14T21:27:51.298Z,1.20
2024-01-14T21:30:19.724Z,1.21
2024-01-14T21:32:49.423Z,1.20
2024-01-14T21:35:17.785Z,1.11
2024-01-14T21:37:47.481Z,1.10
2024-01-14T21:40:15.927Z,1.12
2024-01-14T21:42:47.567Z,1.22
2024-01-14T21:45:16.116Z,1.08
2024-01-14T21:47:45.868Z,1.00
2024-01-14T21:50:14.402Z,1.02
2024-01-14T21:52:44.140Z,1.07
2024-01-14T21:55:14.922Z,1.12
2024-01-14T21:57:45.992Z,0.90
2024-01-14T22:00:14.911Z,1.05
2024-01-14T22:02:44.446Z,1.09
2024-01-14T22:05:12.785Z,0.96
2024-01-14T22:07:42.377Z,0.96
2024-01-14T22:10:10.948Z,0.95
2024-01-14T22:12:40.738Z,1.05
2024-01-14T22:15:10.957Z,1.07
2024-01-14T22:17:40.707Z,1.08
2024-01-14T22:20:09.978Z,0.87
2024-01-14T22:22:39.548Z,1.06
2024-01-14T22:25:08.866Z,0.86
2024-01-14T22:27:38.376Z,0.88
2024-01-14T22:30:07.724Z,0.93
2024-01-14T22:32:38.069Z,0.87
2024-01-14T22:35:07.619Z,0.67
2024-01-14T22:37:37.172Z,0.86
2024-01-14T22:40:06.284Z,0.90
2024-01-14T22:42:35.859Z,1.02
2024-01-14T22:45:05.260Z,0.89
2024-01-14T22:47:34.974Z,1.00
2024-01-14T22:50:03.691Z,1.01
2024-01-14T22:52:33.249Z,0.69
2024-01-14T22:55:01.482Z,0.77
2024-01-14T22:57:32.069Z,0.79
2024-01-14T23:00:00.436Z,0.77
2024-01-14T23:02:30.116Z,0.74
2024-01-14T23:04:58.370Z,0.77
2024-01-14T23:07:28.031Z,0.80
2024-01-14T23:09:56.436Z,0.78
2024-01-14T23:12:26.068Z,0.68
2024-01-14T23:14:54.324Z,0.77
2024-01-14T23:17:24.852Z,0.72
2024-01-14T23:19:53.166Z,0.85
2024-01-14T23:22:23.672Z,0.69
2024-01-14T23:24:52.254Z,0.65
2024-01-14T23:27:23.065Z,0.67
2024-01-14T23:29:51.339Z,0.70
2024-01-14T23:32:21.973Z,0.74
2024-01-14T23:34:50.307Z,0.68
2024-01-14T23:37:19.030Z,0.65
2024-01-14T23:39:47.329Z,0.67
2024-01-14T23:42:17.114Z,0.57
2024-01-14T23:44:45.419Z,0.72
2024-01-14T23:47:16.007Z,0.74
2024-01-14T23:49:44.412Z,0.66
2024-01-14T23:52:14.017Z,0.66
2024-01-14T23:54:42.318Z,0.66
2024-01-14T23:57:12.886Z,0.70
2024-01-14T23:59:41.957Z,0.77
